Terminal Aerodrome Forecast
Issued by NWS Duluth, MN

Home | Current Version | Previous Version | Text Only | Print | Product List | Glossary On
Versions: 1 2 3 4 5 6 7 8 9 10 11 12 13 14 15 16 17 18
000
FTUS43 KDLH 231032 AAB
TAFDLH
TAF AMD
KDLH 231032Z 2311/2406 16012KT P6SM -SN SCT009 BKN018 OVC060
     FM231300 17015G20KT P6SM SCT025 OVC060
     FM232000 18016G23KT 4SM -RA BR SCT012 BKN025
     FM232200 18013G16KT 2SM -RA BR BKN008 OVC015
     FM240100 16008KT 1/2SM -RA FG BKN005 OVC012=

USA.gov is the U.S. government's official web portal to all federal, state and local government web resources and services.